createdAt,value
2019-04-05T00:02:52.859Z,17.40
2019-04-05T00:05:57.769Z,15.27
2019-04-05T00:09:02.920Z,18.80
2019-04-05T00:12:07.909Z,17.00
2019-04-05T00:15:15.623Z,16.67
2019-04-05T00:18:19.648Z,16.67
2019-04-05T00:21:24.645Z,17.70
2019-04-05T00:24:29.666Z,17.30
2019-04-05T00:27:34.669Z,17.97
2019-04-05T00:30:39.621Z,16.90
2019-04-05T00:33:44.550Z,18.97
2019-04-05T00:36:49.556Z,19.27
2019-04-05T00:39:54.474Z,17.87
2019-04-05T00:42:59.405Z,19.13
2019-04-05T00:46:04.460Z,17.23
2019-04-05T00:49:09.465Z,17.43
2019-04-05T00:52:14.539Z,17.97
2019-04-05T00:55:19.615Z,18.80
2019-04-05T00:58:24.703Z,15.53
2019-04-05T01:01:29.776Z,16.20
2019-04-05T01:04:34.857Z,16.63
2019-04-05T01:07:40.072Z,17.60
2019-04-05T01:10:45.257Z,16.40
2019-04-05T01:13:51.889Z,16.43
2019-04-05T01:16:57.547Z,16.90
2019-04-05T01:20:04.249Z,17.43
2019-04-05T01:23:12.124Z,17.17
2019-04-05T01:26:19.471Z,18.63
2019-04-05T01:29:25.053Z,19.17
2019-04-05T01:32:30.198Z,17.63
2019-04-05T01:35:35.269Z,17.30
2019-04-05T01:38:40.335Z,18.33
2019-04-05T01:41:46.203Z,18.37
2019-04-05T01:44:52.006Z,17.57
2019-04-05T01:47:57.241Z,20.47
2019-04-05T01:51:02.316Z,19.40
2019-04-05T01:54:07.399Z,19.63
2019-04-05T01:57:12.442Z,18.80
2019-04-05T02:00:17.944Z,18.63
2019-04-05T02:03:22.936Z,19.03
2019-04-05T02:06:27.945Z,17.20
2019-04-05T02:09:33.221Z,18.37
2019-04-05T02:12:38.540Z,20.17
2019-04-05T02:15:43.626Z,25.57
2019-04-05T02:18:48.693Z,20.20
2019-04-05T02:21:55.328Z,20.03
2019-04-05T02:25:00.425Z,21.60
2019-04-05T02:28:05.493Z,18.33
2019-04-05T02:31:10.588Z,21.23
2019-04-05T02:34:15.963Z,19.60
2019-04-05T02:37:21.046Z,23.63
2019-04-05T02:40:28.339Z,20.27
2019-04-05T02:43:35.062Z,22.77
2019-04-05T02:46:41.846Z,20.23
2019-04-05T02:49:47.433Z,23.10
2019-04-05T02:53:13.085Z,22.90
2019-04-05T02:56:18.851Z,24.60
2019-04-05T02:59:25.861Z,24.27
2019-04-05T03:02:31.746Z,25.13
2019-04-05T03:05:38.327Z,22.90
2019-04-05T03:08:43.805Z,22.17
2019-04-05T03:11:49.273Z,26.47
2019-04-05T03:14:54.745Z,27.13
2019-04-05T03:17:59.653Z,23.80
2019-04-05T03:21:07.385Z,25.10
2019-04-05T03:24:16.691Z,23.97
2019-04-05T03:27:26.486Z,25.60
2019-04-05T03:30:31.587Z,24.90
2019-04-05T03:33:37.084Z,26.50
2019-04-05T03:36:42.322Z,24.60
2019-04-05T03:39:47.457Z,27.90
2019-04-05T03:42:52.540Z,30.10
2019-04-05T03:45:57.706Z,29.10
2019-04-05T03:49:04.698Z,28.17
2019-04-05T03:52:10.107Z,28.30
2019-04-05T03:55:15.104Z,28.10
2019-04-05T03:58:20.682Z,29.83
2019-04-05T04:01:25.761Z,28.30
2019-04-05T04:04:31.277Z,33.60
2019-04-05T04:07:36.355Z,30.67
2019-04-05T04:10:41.636Z,29.70
2019-04-05T04:13:47.334Z,34.30
2019-04-05T04:16:53.483Z,33.30
2019-04-05T04:19:58.777Z,32.53
2019-04-05T04:23:05.323Z,37.43
2019-04-05T04:26:10.431Z,32.57
2019-04-05T04:29:15.522Z,40.27
2019-04-05T04:32:20.581Z,28.43
2019-04-05T04:35:26.044Z,30.70
2019-04-05T04:38:31.123Z,35.77
2019-04-05T04:41:36.225Z,35.50
2019-04-05T04:44:42.486Z,32.83
2019-04-05T04:47:47.561Z,35.67
2019-04-05T04:50:53.031Z,39.03
2019-04-05T04:53:58.921Z,37.70
2019-04-05T04:57:04.317Z,34.27
2019-04-05T05:00:09.313Z,33.63
2019-04-05T05:03:14.386Z,38.10
2019-04-05T05:06:19.744Z,39.03
2019-04-05T05:09:24.817Z,34.33
2019-04-05T05:12:30.088Z,36.57
2019-04-05T05:15:35.887Z,39.23
2019-04-05T05:18:42.042Z,39.30
2019-04-05T05:21:47.438Z,35.20
2019-04-05T05:24:52.520Z,40.37
2019-04-05T05:27:57.901Z,30.60
2019-04-05T05:31:03.473Z,37.10
2019-04-05T05:34:08.550Z,39.17
2019-04-05T05:37:13.892Z,34.17
2019-04-05T05:40:19.405Z,32.50
2019-04-05T05:43:24.473Z,38.53
2019-04-05T05:46:29.537Z,38.43
2019-04-05T05:49:34.542Z,39.00
2019-04-05T05:52:40.322Z,35.07
2019-04-05T05:55:45.328Z,32.43
2019-04-05T05:58:50.242Z,37.00
2019-04-05T06:01:55.165Z,33.17
2019-04-05T06:05:00.108Z,35.60
2019-04-05T06:08:05.117Z,32.13
2019-04-05T06:11:10.131Z,38.83
2019-04-05T06:14:15.068Z,36.53
2019-04-05T06:17:20.096Z,29.43
2019-04-05T06:20:25.188Z,31.27
2019-04-05T06:26:36.908Z,36.07
2019-04-05T06:29:41.914Z,29.67
2019-04-05T06:32:46.928Z,26.47
2019-04-05T06:35:39.524Z,31.97
2019-04-05T06:35:51.905Z,30.70
2019-04-05T06:38:56.835Z,27.10
2019-04-05T06:42:01.854Z,25.63
2019-04-05T06:45:07.081Z,30.73
2019-04-05T06:48:19.035Z,25.73
2019-04-05T06:51:18.773Z,23.23
2019-04-05T06:54:23.785Z,23.80
2019-04-05T06:57:28.784Z,22.93
2019-04-05T07:00:33.793Z,25.40
2019-04-05T07:03:38.871Z,27.73
2019-04-05T07:06:43.811Z,22.67
2019-04-05T07:09:48.714Z,25.23
2019-04-05T07:12:53.793Z,21.90
2019-04-05T07:15:58.868Z,22.07
2019-04-05T07:19:03.883Z,23.20
2019-04-05T07:22:08.951Z,22.30
2019-04-05T07:25:14.057Z,22.00
2019-04-05T07:28:19.082Z,21.57
2019-04-05T07:31:24.106Z,21.63
2019-04-05T07:34:29.017Z,21.97
2019-04-05T07:37:34.045Z,22.23
2019-04-05T07:40:38.974Z,24.20
2019-04-05T07:43:45.271Z,21.97
2019-04-05T07:46:50.250Z,20.90
2019-04-05T07:49:55.232Z,24.00
2019-04-05T07:53:00.243Z,21.03
2019-04-05T07:56:05.313Z,24.83
2019-04-05T07:59:10.396Z,21.90
2019-04-05T08:02:15.467Z,24.33
2019-04-05T08:05:20.388Z,21.10
2019-04-05T08:08:41.015Z,23.70
2019-04-05T08:11:47.081Z,24.47
2019-04-05T08:14:52.385Z,22.07
2019-04-05T08:17:57.311Z,18.97
2019-04-05T08:21:02.381Z,18.57
2019-04-05T08:24:07.455Z,21.50
2019-04-05T08:27:12.390Z,23.87
2019-04-05T08:30:17.490Z,19.03
2019-04-05T08:33:22.479Z,17.77
2019-04-05T08:36:27.505Z,25.60
2019-04-05T08:39:32.422Z,21.53
2019-04-05T08:42:37.346Z,23.80
2019-04-05T08:45:42.350Z,20.03
2019-04-05T08:48:47.419Z,19.73
2019-04-05T08:51:52.345Z,19.53
2019-04-05T08:54:57.337Z,20.90
2019-04-05T08:58:02.418Z,21.60
2019-04-05T09:01:07.426Z,20.90
2019-04-05T09:04:12.393Z,20.93
2019-04-05T09:07:17.317Z,20.57
2019-04-05T09:10:22.332Z,21.33
2019-04-05T09:13:27.347Z,22.27
2019-04-05T09:16:32.337Z,23.50
2019-04-05T09:19:37.335Z,22.47
2019-04-05T09:22:42.271Z,23.60
2019-04-05T09:25:47.189Z,21.43
2019-04-05T09:28:52.128Z,21.63
2019-04-05T09:31:57.044Z,19.70
2019-04-05T09:35:02.043Z,21.27
2019-04-05T09:38:07.153Z,22.87
2019-04-05T09:41:12.155Z,22.63
2019-04-05T09:44:17.234Z,20.97
2019-04-05T09:47:22.226Z,22.70
2019-04-05T09:50:27.307Z,23.23
2019-04-05T09:53:32.391Z,20.33
2019-04-05T09:56:37.413Z,24.87
2019-04-05T09:59:42.337Z,25.20
2019-04-05T10:02:47.277Z,22.07
2019-04-05T10:05:52.263Z,21.80
2019-04-05T10:08:57.206Z,23.50
2019-04-05T10:12:02.265Z,25.00
2019-04-05T10:15:07.618Z,25.53
2019-04-05T10:18:12.613Z,24.23
2019-04-05T10:21:17.551Z,29.67
2019-04-05T10:24:22.474Z,28.47
2019-04-05T10:27:27.657Z,31.33
2019-04-05T10:30:32.725Z,26.60
2019-04-05T10:33:37.694Z,27.87
2019-04-05T10:36:42.686Z,24.73
2019-04-05T10:39:47.689Z,29.97
2019-04-05T10:42:52.669Z,27.10
2019-04-05T10:45:57.766Z,26.03
2019-04-05T10:49:02.843Z,29.03
2019-04-05T10:52:07.837Z,26.90
2019-04-05T10:55:13.212Z,30.03
2019-04-05T10:58:18.221Z,28.67
2019-04-05T11:01:23.209Z,28.93
2019-04-05T11:04:28.230Z,25.10
2019-04-05T11:07:35.092Z,25.60
2019-04-05T11:10:39.881Z,26.00
2019-04-05T11:13:44.821Z,24.80
2019-04-05T11:16:58.277Z,26.90
2019-04-05T11:19:56.458Z,27.83
2019-04-05T11:23:01.470Z,23.63
2019-04-05T11:26:06.590Z,21.97
2019-04-05T11:29:14.107Z,21.37
2019-04-05T11:32:18.331Z,22.77
2019-04-05T11:35:23.418Z,22.00
2019-04-05T11:38:28.783Z,20.90
2019-04-05T11:41:36.747Z,21.73
2019-04-05T11:44:43.033Z,22.20
2019-04-05T11:47:48.933Z,21.90
2019-04-05T11:50:53.963Z,24.63
2019-04-05T11:53:58.901Z,19.90
2019-04-05T11:57:03.941Z,21.50
2019-04-05T12:00:13.050Z,63.97
2019-04-05T12:03:18.376Z,23.33
2019-04-05T12:06:23.309Z,20.07
2019-04-05T12:09:28.308Z,20.80
2019-04-05T12:12:33.282Z,19.83
2019-04-05T12:15:38.365Z,22.17
2019-04-05T12:18:43.374Z,19.53
2019-04-05T12:21:48.313Z,19.07
2019-04-05T12:24:53.313Z,21.53
2019-04-05T12:28:06.201Z,22.57
2019-04-05T12:31:05.414Z,22.80
2019-04-05T12:34:10.437Z,20.33
2019-04-05T12:37:15.402Z,21.07
2019-04-05T12:40:20.469Z,20.43
2019-04-05T12:43:25.502Z,19.00
2019-04-05T12:46:30.577Z,19.80
2019-04-05T12:49:35.578Z,19.40
2019-04-05T12:52:40.501Z,20.87
2019-04-05T12:55:45.595Z,21.57
2019-04-05T12:58:50.535Z,24.17
2019-04-05T13:01:55.482Z,20.00
2019-04-05T13:05:00.439Z,24.40
2019-04-05T13:08:05.618Z,23.63
2019-04-05T13:11:10.587Z,22.33
2019-04-05T13:14:15.510Z,24.90
2019-04-05T13:17:20.518Z,20.50
2019-04-05T13:20:25.512Z,21.27
2019-04-05T13:23:30.459Z,18.47
2019-04-05T13:26:36.916Z,21.57
2019-04-05T13:29:42.046Z,18.17
2019-04-05T13:32:46.998Z,23.53
2019-04-05T13:35:52.074Z,21.80
2019-04-05T13:38:59.531Z,22.43
2019-04-05T13:42:04.068Z,20.40
2019-04-05T13:45:09.465Z,20.57
2019-04-05T13:48:14.392Z,24.77
2019-04-05T13:51:27.726Z,22.23
2019-04-05T13:54:25.967Z,20.63
2019-04-05T13:57:30.984Z,23.77
2019-04-05T14:00:36.047Z,23.43
2019-04-05T14:03:41.062Z,20.33
2019-04-05T14:06:46.074Z,24.03
2019-04-05T14:09:51.086Z,22.40
2019-04-05T14:12:56.102Z,25.30
2019-04-05T14:16:01.193Z,18.67
2019-04-05T14:19:06.284Z,25.73
2019-04-05T14:22:11.296Z,23.40
2019-04-05T14:25:16.472Z,23.70
2019-04-05T14:28:21.497Z,23.60
2019-04-05T14:31:26.565Z,22.67
2019-04-05T14:34:31.617Z,20.53
2019-04-05T14:37:36.617Z,19.57
2019-04-05T14:40:41.724Z,20.77
2019-04-05T14:43:46.797Z,21.70
2019-04-05T14:46:52.193Z,22.37
2019-04-05T14:49:58.297Z,22.93
2019-04-05T14:53:04.379Z,23.07
2019-04-05T14:56:09.373Z,19.33
2019-04-05T14:59:14.309Z,21.97
2019-04-05T15:02:19.312Z,20.57
2019-04-05T15:05:24.409Z,21.70
2019-04-05T15:08:29.459Z,21.47
2019-04-05T15:11:34.518Z,22.30
2019-04-05T15:14:39.448Z,20.90
2019-04-05T15:17:48.184Z,21.00
2019-04-05T15:20:51.170Z,20.13
2019-04-05T15:23:56.107Z,20.83
2019-04-05T15:27:01.107Z,21.57
2019-04-05T15:30:06.836Z,19.67
2019-04-05T15:33:11.775Z,22.10
2019-04-05T15:36:16.720Z,22.40
2019-04-05T15:39:22.023Z,21.17
2019-04-05T15:42:26.954Z,20.53
2019-04-05T15:45:34.821Z,22.30
2019-04-05T15:48:40.118Z,21.27
2019-04-05T15:51:45.058Z,21.63
2019-04-05T15:54:50.070Z,34.33
2019-04-05T15:57:54.993Z,22.30
2019-04-05T16:01:00.151Z,18.47
2019-04-05T16:04:05.838Z,20.00
2019-04-05T16:07:10.860Z,19.23
2019-04-05T16:10:16.409Z,19.63
2019-04-05T16:13:21.407Z,19.60
2019-04-05T16:16:27.069Z,21.40
2019-04-05T16:19:32.077Z,20.03
2019-04-05T16:22:37.007Z,19.97
2019-04-05T16:25:42.094Z,21.53
2019-04-05T16:28:47.172Z,23.10
2019-04-05T16:31:52.113Z,20.70
2019-04-05T16:34:57.127Z,22.27
2019-04-05T16:38:02.041Z,19.77
2019-04-05T16:41:06.996Z,21.33
2019-04-05T16:44:12.053Z,21.10
2019-04-05T16:47:17.007Z,21.03
2019-04-05T16:50:22.081Z,23.17
2019-04-05T16:53:27.159Z,21.20
2019-04-05T16:56:32.354Z,21.77
2019-04-05T16:59:37.423Z,21.57
2019-04-05T17:02:42.497Z,20.30
2019-04-05T17:05:47.714Z,20.50
2019-04-05T17:08:53.207Z,21.37
2019-04-05T17:11:58.217Z,22.70
2019-04-05T17:15:03.292Z,21.60
2019-04-05T17:18:08.309Z,22.23
2019-04-05T17:21:13.313Z,23.37
2019-04-05T17:24:18.256Z,22.50
2019-04-05T17:27:23.276Z,20.60
2019-04-05T17:30:28.369Z,20.63
2019-04-05T17:33:33.746Z,20.90
2019-04-05T17:36:39.031Z,23.63
2019-04-05T17:39:44.093Z,21.90
2019-04-05T17:42:49.108Z,25.87
2019-04-05T17:45:54.105Z,24.67
2019-04-05T17:48:59.306Z,25.13
2019-04-05T17:52:04.529Z,25.60
2019-04-05T17:55:09.811Z,26.67
2019-04-05T17:58:16.399Z,24.43
2019-04-05T18:01:21.480Z,25.00
2019-04-05T18:04:26.498Z,25.83
2019-04-05T18:07:31.435Z,23.47
2019-04-05T18:10:36.584Z,24.00
2019-04-05T18:13:41.534Z,25.90
2019-04-05T18:16:46.557Z,26.47
2019-04-05T18:19:51.626Z,24.03
2019-04-05T18:22:56.650Z,25.90
2019-04-05T18:26:01.662Z,29.10
2019-04-05T18:29:07.113Z,24.20
2019-04-05T18:32:12.648Z,25.93
2019-04-05T18:35:17.799Z,27.23
2019-04-05T18:38:22.730Z,36.03
2019-04-05T18:41:27.758Z,39.40
2019-04-05T18:44:32.819Z,29.17
2019-04-05T18:47:38.095Z,33.63
2019-04-05T18:50:43.157Z,30.20
2019-04-05T18:53:48.351Z,30.90
2019-04-05T18:56:53.462Z,26.27
2019-04-05T18:59:58.461Z,29.33
2019-04-05T19:03:04.433Z,31.23
2019-04-05T19:06:09.449Z,31.53
2019-04-05T19:09:14.477Z,32.20
2019-04-05T19:12:19.421Z,27.60
2019-04-05T19:15:24.353Z,28.87
2019-04-05T19:18:29.475Z,29.70
2019-04-05T19:21:34.380Z,27.63
2019-04-05T19:24:39.336Z,31.80
2019-04-05T19:27:44.283Z,30.33
2019-04-05T19:49:29.541Z,30.17
2019-04-05T19:52:34.470Z,26.53
2019-04-05T19:55:39.427Z,28.33
2019-04-05T19:58:44.457Z,29.37
2019-04-05T20:01:49.529Z,27.53
2019-04-05T20:04:54.540Z,30.93
2019-04-05T20:07:59.897Z,28.97
2019-04-05T20:11:05.329Z,33.20
2019-04-05T20:14:10.413Z,31.50
2019-04-05T20:17:15.358Z,29.23
2019-04-05T20:20:20.297Z,27.30
2019-04-05T20:23:25.241Z,32.30
2019-04-05T20:26:30.310Z,29.67
2019-04-05T20:29:35.331Z,31.37
2019-04-05T20:32:40.248Z,30.40
2019-04-05T20:35:45.179Z,30.60
2019-04-05T20:38:50.097Z,27.67
2019-04-05T20:41:55.125Z,29.90
2019-04-05T20:45:00.177Z,28.80
2019-04-05T20:48:05.183Z,31.00
2019-04-05T20:51:11.198Z,28.77
2019-04-05T20:54:24.255Z,27.80
2019-04-05T20:57:22.833Z,30.77
2019-04-05T21:00:27.962Z,28.20
2019-04-05T21:03:32.876Z,28.93
2019-04-05T21:06:37.829Z,29.17
2019-04-05T21:09:42.878Z,27.00
2019-04-05T21:12:47.941Z,30.40
2019-04-05T21:15:53.021Z,27.60
2019-04-05T21:18:58.269Z,31.30
2019-04-05T21:22:03.222Z,29.57
2019-04-05T21:25:08.305Z,28.97
2019-04-05T21:28:13.220Z,26.03
2019-04-05T21:31:18.161Z,32.70
2019-04-05T21:34:23.094Z,29.10
2019-04-05T21:37:28.025Z,29.40
2019-04-05T21:40:33.039Z,30.03
2019-04-05T21:43:38.035Z,30.70
2019-04-05T21:46:43.029Z,30.20
2019-04-05T21:49:48.020Z,35.07
2019-04-05T21:52:53.017Z,33.90
2019-04-05T21:55:58.016Z,32.10
2019-04-05T21:59:03.021Z,35.20
2019-04-05T22:02:08.272Z,35.30
2019-04-05T22:05:13.363Z,34.07
2019-04-05T22:08:18.373Z,33.63
2019-04-05T22:11:23.389Z,31.40
2019-04-05T22:14:28.318Z,33.43
2019-04-05T22:17:33.259Z,35.43
2019-04-05T22:20:38.176Z,33.50
2019-04-05T22:23:43.113Z,32.57
2019-04-05T22:26:48.045Z,33.03
2019-04-05T22:29:52.957Z,29.23
2019-04-05T22:32:57.961Z,28.70
2019-04-05T22:36:02.966Z,33.37
2019-04-05T22:39:08.270Z,31.83
2019-04-05T22:42:13.214Z,33.80
2019-04-05T22:45:18.261Z,32.63
2019-04-05T22:48:23.256Z,31.40
2019-04-05T22:51:28.204Z,37.50
2019-04-05T22:54:33.125Z,34.70
2019-04-05T22:57:38.046Z,34.63
2019-04-05T23:00:43.060Z,34.17
2019-04-05T23:03:48.003Z,33.30
2019-04-05T23:06:53.096Z,34.70
2019-04-05T23:09:58.162Z,32.87
2019-04-05T23:13:03.108Z,38.00
2019-04-05T23:16:08.185Z,34.50
2019-04-05T23:19:13.104Z,32.20
2019-04-05T23:22:18.045Z,34.90
2019-04-05T23:25:23.045Z,30.53
2019-04-05T23:28:27.986Z,36.50
2019-04-05T23:31:32.997Z,30.00
2019-04-05T23:34:38.065Z,30.63
2019-04-05T23:37:43.045Z,28.87
2019-04-05T23:40:48.037Z,33.60
2019-04-05T23:43:52.969Z,35.50
2019-04-05T23:46:58.169Z,31.37
2019-04-05T23:50:03.252Z,30.23
2019-04-05T23:53:08.272Z,34.50
2019-04-05T23:56:13.213Z,33.40
2019-04-05T23:59:18.146Z,30.57
